The Villages, FL

5:28 PM EDT on June 23, 2017 (GMT -0400)
The Villages

Weather History for KVVG - January, 2013

Change the Weather History Date:

Friday, January 25, 2013

  Actual Average (KLEE) Record (KLEE)
Temperature  
Mean Temperature 62 °F -  
Max Temperature 75 °F 69 °F 83 °F (1972)
Min Temperature 48 °F 46 °F 28 °F (1963)
Degree Days  
Heating Degree Days 4    
Growing Degree Days 12 (Base 50)    
Moisture  
Dew Point 48 °F    
Average Humidity 72    
Maximum Humidity 100    
Minimum Humidity 36    
Precipitation  
Precipitation 0.00 in - - ()
Sea Level Pressure  
Sea Level Pressure 30.26 in    
Wind  
Wind Speed 1 mph (SW)    
Max Wind Speed 12 mph    
Max Gust Speed -    
Visibility 7 miles    
Events Fog    
Averages and records for this station are not official NWS values.
T = Trace of Precipitation, MM = Missing Value Source: NWS Daily Summary

Daily Weather History Graph

Daily Weather History Graph

Search for Another Location

Airport or City:

Trip Planner

Search our weather history database for the weather conditions in past years. The results will help you decide how hot, cold, wet, or windy it might be!

Date:

Astronomy

Jan. 25, 2013 Rise Set
Actual Time 7:19 AM EST 6:00 PM EST
Civil Twilight 6:54 AM EST 6:25 PM EST
Nautical Twilight 6:25 AM EST 6:54 PM EST
Astronomical Twilight 5:57 AM EST 7:22 PM EST
Moon 4:56 PM EST (1/25) 5:57 AM EST (1/25)
Length of Visible Light 11h 31m
Length of Day
10h 41m
Waxing Gibbous, 98% of the Moon is Illuminated
Jan 25
Waxing Gibbous
Jan 26
Full
Feb 3
Last Quarter
Feb 10
New
Feb 17
First Quarter

Hourly Weather History & Observations

Time (EST) Temp. Dew Point Humidity Pressure Visibility Wind Dir Wind Speed Gust Speed Precip Events Conditions
12:15 AM 53.6 °F 53.6 °F 100% 30.30 in 5.0 mi Calm Calm - N/A   Mist
12:55 AM 51.8 °F 51.8 °F 100% 30.29 in 1.8 mi Calm Calm - N/A   Mist
1:15 AM 51.8 °F 51.8 °F 100% 30.29 in 0.2 mi Calm Calm - N/A Fog Fog
1:55 AM 50.0 °F 50.0 °F 100% 30.29 in 0.2 mi Calm Calm - N/A Fog Fog
2:15 AM 51.8 °F 51.8 °F 100% 30.29 in 0.2 mi Calm Calm - N/A Fog Fog
2:35 AM 50.0 °F 50.0 °F 100% 30.28 in 0.2 mi Calm Calm - N/A Fog Fog
2:55 AM 50.0 °F 50.0 °F 100% 30.28 in 0.2 mi Calm Calm - N/A Fog Fog
3:15 AM 50.0 °F 50.0 °F 100% 30.27 in 0.2 mi Calm Calm - N/A Fog Fog
3:55 AM 50.0 °F 50.0 °F 100% 30.28 in 0.2 mi Calm Calm - N/A Fog Fog
4:15 AM 50.0 °F 50.0 °F 100% 30.28 in 0.2 mi Calm Calm - N/A Fog Fog
4:35 AM 48.2 °F 48.2 °F 100% 30.28 in 0.2 mi Calm Calm - N/A Fog Fog
4:55 AM 48.2 °F 48.2 °F 100% 30.28 in 0.2 mi Calm Calm - N/A Fog Fog
5:15 AM 48.2 °F 48.2 °F 100% 30.28 in 0.2 mi Calm Calm - N/A Fog Fog
5:55 AM 48.2 °F 48.2 °F 100% 30.30 in 0.2 mi Calm Calm - N/A Fog Fog
6:15 AM 48.2 °F 48.2 °F 100% 30.31 in 4.0 mi Calm Calm - N/A   Mist
6:35 AM 50.0 °F 50.0 °F 100% 30.31 in 4.0 mi Calm Calm - N/A   Mist
6:55 AM 50.0 °F 50.0 °F 100% 30.31 in 4.0 mi Calm Calm - N/A   Mist
7:15 AM 50.0 °F 50.0 °F 100% 30.31 in 2.5 mi Calm Calm - N/A   Mist
7:35 AM 48.2 °F 48.2 °F 100% 30.31 in 2.0 mi Calm Calm - N/A   Mist
7:55 AM 48.2 °F 48.2 °F 100% 30.31 in 1.8 mi Calm Calm - N/A   Mist
8:15 AM 48.2 °F 48.2 °F 100% 30.32 in 2.5 mi Calm Calm - N/A   Mist
8:35 AM 51.8 °F 51.8 °F 100% 30.32 in 2.5 mi Calm Calm - N/A   Mist
8:55 AM 53.6 °F 53.6 °F 100% 30.32 in 3.0 mi Calm Calm - N/A   Mist
9:15 AM 57.2 °F 57.2 °F 100% 30.32 in 5.0 mi Calm Calm - N/A   Mist
9:35 AM 57.2 °F 57.2 °F 100% 30.33 in 6.0 mi Calm Calm - N/A   Mist
9:55 AM 60.8 °F 60.8 °F 100% 30.33 in 7.0 mi Calm Calm - N/A   Unknown
10:15 AM 64.4 °F 55.4 °F 73% 30.33 in 9.0 mi Calm Calm - N/A   Unknown
10:35 AM 66.2 °F 53.6 °F 64% 30.33 in 8.0 mi East 5.8 mph - N/A   Unknown
10:55 AM 68.0 °F 53.6 °F 60% 30.32 in 7.0 mi East 3.5 mph - N/A   Unknown
11:15 AM 69.8 °F 51.8 °F 53% 30.32 in 9.0 mi Calm Calm - N/A   Unknown
11:35 AM 69.8 °F 51.8 °F 53% 30.31 in 9.0 mi Calm Calm - N/A   Unknown
11:55 AM 71.6 °F 48.2 °F 43% 30.30 in 10.0 mi Calm Calm - N/A   Unknown
12:15 PM 73.4 °F 46.4 °F 38% 30.29 in 10.0 mi Calm Calm - N/A   Unknown
12:35 PM 71.6 °F 46.4 °F 41% 30.27 in 9.0 mi Calm Calm - N/A   Unknown
12:55 PM 73.4 °F 48.2 °F 41% 30.26 in 10.0 mi South 8.1 mph - N/A   Unknown
1:15 PM 73.4 °F 48.2 °F 41% 30.25 in 10.0 mi South 5.8 mph - N/A   Unknown
1:35 PM 73.4 °F 48.2 °F 41% 30.24 in 10.0 mi Calm Calm - N/A   Unknown
1:55 PM 73.4 °F 46.4 °F 38% 30.23 in 10.0 mi West 3.5 mph - N/A   Unknown
2:15 PM 73.4 °F 46.4 °F 38% 30.22 in 10.0 mi SW 4.6 mph - N/A   Unknown
2:55 PM 73.4 °F 48.2 °F 41% 30.20 in 8.0 mi Calm Calm - N/A   Unknown
3:15 PM 75.2 °F 46.4 °F 36% 30.19 in 10.0 mi SSE 9.2 mph - N/A   Unknown
3:35 PM 73.4 °F 46.4 °F 38% 30.19 in 8.0 mi Calm Calm - N/A   Unknown
3:55 PM 75.2 °F 46.4 °F 36% 30.20 in 9.0 mi SSW 8.1 mph - N/A   Unknown
4:15 PM 73.4 °F 46.4 °F 38% 30.19 in 10.0 mi SSW 11.5 mph - N/A   Unknown
4:35 PM 73.4 °F 46.4 °F 38% 30.19 in 10.0 mi South 6.9 mph - N/A   Unknown
4:55 PM 73.4 °F 46.4 °F 38% 30.19 in 10.0 mi SW 9.2 mph - N/A   Unknown
5:35 PM 71.6 °F 46.4 °F 41% 30.20 in 9.0 mi WSW 5.8 mph - N/A   Unknown
5:55 PM 69.8 °F 46.4 °F 43% 30.20 in 10.0 mi West 8.1 mph - N/A   Unknown
6:15 PM 66.2 °F 46.4 °F 49% 30.20 in 10.0 mi West 6.9 mph - N/A   Unknown
6:35 PM 64.4 °F 46.4 °F 52% 30.21 in 10.0 mi West 6.9 mph - N/A   Unknown
6:55 PM 64.4 °F 44.6 °F 49% 30.22 in 10.0 mi West 6.9 mph - N/A   Unknown
7:35 PM 62.6 °F 42.8 °F 48% 30.22 in 10.0 mi WSW 5.8 mph - N/A   Unknown
7:55 PM 60.8 °F 42.8 °F 52% 30.22 in 10.0 mi Calm Calm - N/A   Unknown
8:15 PM 60.8 °F 42.8 °F 52% 30.22 in 10.0 mi Calm Calm - N/A   Unknown
8:35 PM 59.0 °F 44.6 °F 59% 30.22 in 10.0 mi Calm Calm - N/A   Unknown
8:55 PM 57.2 °F 44.6 °F 63% 30.22 in 10.0 mi Calm Calm - N/A   Unknown
9:15 PM 55.4 °F 44.6 °F 67% 30.22 in 10.0 mi Calm Calm - N/A   Unknown
9:35 PM 55.4 °F 44.6 °F 67% 30.22 in 10.0 mi Calm Calm - N/A   Unknown
9:55 PM 53.6 °F 44.6 °F 72% 30.22 in 10.0 mi Calm Calm - N/A   Unknown
10:15 PM 51.8 °F 44.6 °F 76% 30.23 in 10.0 mi Calm Calm - N/A   Unknown
10:35 PM 51.8 °F 46.4 °F 82% 30.24 in 10.0 mi Calm Calm - N/A   Unknown
10:55 PM 51.8 °F 46.4 °F 82% 30.24 in 10.0 mi Calm Calm - N/A   Unknown
11:15 PM 51.8 °F 44.6 °F 76% 30.25 in 10.0 mi Calm Calm - N/A   Unknown
11:35 PM 50.0 °F 44.6 °F 82% 30.25 in 10.0 mi Calm Calm - N/A   Unknown
11:55 PM 48.2 °F 44.6 °F 87% 30.25 in 10.0 mi Calm Calm - N/A   Unknown